sensor_id;sensor_type;location;lat;lon;timestamp;pressure;altitude;pressure_sealevel;temperature;humidity
7990;BME280;4040;42.848;23.034;2022-11-20T00:05:32;94229.38;;;17.40;100.00
7990;BME280;4040;42.848;23.034;2022-11-20T00:11:23;94217.06;;;17.54;100.00
7990;BME280;4040;42.848;23.034;2022-11-20T00:17:12;94172.75;;;17.53;100.00
7990;BME280;4040;42.848;23.034;2022-11-20T00:23:00;94204.09;;;17.81;100.00
7990;BME280;4040;42.848;23.034;2022-11-20T00:28:52;94198.28;;;17.88;100.00
7990;BME280;4040;42.848;23.034;2022-11-20T00:34:40;94187.81;;;17.96;100.00
7990;BME280;4040;42.848;23.034;2022-11-20T00:40:29;94183.16;;;17.87;100.00
7990;BME280;4040;42.848;23.034;2022-11-20T00:46:21;94206.78;;;17.90;100.00
7990;BME280;4040;42.848;23.034;2022-11-20T00:52:10;94206.81;;;17.81;100.00
7990;BME280;4040;42.848;23.034;2022-11-20T00:57:59;94212.88;;;17.76;100.00
7990;BME280;4040;42.848;23.034;2022-11-20T01:03:50;94199.50;;;17.64;100.00
7990;BME280;4040;42.848;23.034;2022-11-20T01:09:39;94194.22;;;17.60;100.00
7990;BME280;4040;42.848;23.034;2022-11-20T01:19:12;94175.47;;;17.53;100.00
7990;BME280;4040;42.848;23.034;2022-11-20T01:25:02;94182.16;;;17.34;100.00
7990;BME280;4040;42.848;23.034;2022-11-20T01:30:50;94189.28;;;17.32;100.00
7990;BME280;4040;42.848;23.034;2022-11-20T01:36:41;94171.66;;;17.60;100.00
7990;BME280;4040;42.848;23.034;2022-11-20T01:42:30;94181.81;;;17.59;100.00
7990;BME280;4040;42.848;23.034;2022-11-20T01:48:39;94175.09;;;17.69;100.00
7990;BME280;4040;42.848;23.034;2022-11-20T01:54:36;94179.38;;;17.61;100.00
7990;BME280;4040;42.848;23.034;2022-11-20T02:00:26;94165.00;;;17.61;100.00
7990;BME280;4040;42.848;23.034;2022-11-20T02:06:21;94168.72;;;17.72;100.00
7990;BME280;4040;42.848;23.034;2022-11-20T02:12:13;94169.25;;;17.85;100.00
7990;BME280;4040;42.848;23.034;2022-11-20T02:22:22;94172.66;;;17.71;100.00
7990;BME280;4040;42.848;23.034;2022-11-20T02:28:14;94174.50;;;17.65;100.00
7990;BME280;4040;42.848;23.034;2022-11-20T02:34:03;94177.19;;;17.74;100.00
7990;BME280;4040;42.848;23.034;2022-11-20T02:39:52;94200.84;;;17.68;100.00
7990;BME280;4040;42.848;23.034;2022-11-20T02:45:42;94203.66;;;17.41;100.00
7990;BME280;4040;42.848;23.034;2022-11-20T02:51:31;94213.97;;;17.10;100.00
7990;BME280;4040;42.848;23.034;2022-11-20T02:57:19;94209.50;;;16.71;100.00
7990;BME280;4040;42.848;23.034;2022-11-20T03:03:09;94214.59;;;16.33;100.00
7990;BME280;4040;42.848;23.034;2022-11-20T03:08:58;94209.09;;;15.97;100.00
7990;BME280;4040;42.848;23.034;2022-11-20T03:14:47;94210.75;;;15.95;100.00
7990;BME280;4040;42.848;23.034;2022-11-20T03:24:59;94223.78;;;15.60;100.00
7990;BME280;4040;42.848;23.034;2022-11-20T03:30:47;94205.69;;;15.66;100.00
7990;BME280;4040;42.848;23.034;2022-11-20T03:36:37;94213.78;;;15.57;100.00
7990;BME280;4040;42.848;23.034;2022-11-20T03:42:27;94191.53;;;15.71;100.00
7990;BME280;4040;42.848;23.034;2022-11-20T03:48:34;94182.56;;;16.19;100.00
7990;BME280;4040;42.848;23.034;2022-11-20T03:54:23;94186.25;;;16.43;100.00
7990;BME280;4040;42.848;23.034;2022-11-20T04:00:14;94188.81;;;16.38;100.00
7990;BME280;4040;42.848;23.034;2022-11-20T04:06:05;94190.84;;;16.16;100.00
7990;BME280;4040;42.848;23.034;2022-11-20T04:11:54;94191.88;;;16.00;100.00
7990;BME280;4040;42.848;23.034;2022-11-20T04:17:44;94178.28;;;15.73;100.00
7990;BME280;4040;42.848;23.034;2022-11-20T04:27:54;94211.72;;;15.61;100.00
7990;BME280;4040;42.848;23.034;2022-11-20T04:33:45;94213.50;;;15.55;100.00
7990;BME280;4040;42.848;23.034;2022-11-20T04:39:33;94211.75;;;15.70;100.00
7990;BME280;4040;42.848;23.034;2022-11-20T04:45:32;94208.25;;;16.27;100.00
7990;BME280;4040;42.848;23.034;2022-11-20T04:51:23;94200.75;;;16.67;100.00
7990;BME280;4040;42.848;23.034;2022-11-20T04:57:13;94206.19;;;16.76;100.00
7990;BME280;4040;42.848;23.034;2022-11-20T05:03:03;94159.94;;;16.22;100.00
7990;BME280;4040;42.848;23.034;2022-11-20T05:08:53;94184.72;;;16.33;100.00
7990;BME280;4040;42.848;23.034;2022-11-20T05:14:42;94193.88;;;16.27;100.00
7990;BME280;4040;42.848;23.034;2022-11-20T05:20:30;94219.78;;;16.58;100.00
7990;BME280;4040;42.848;23.034;2022-11-20T05:30:42;94210.69;;;16.52;100.00
7990;BME280;4040;42.848;23.034;2022-11-20T05:36:31;94216.91;;;16.53;100.00
7990;BME280;4040;42.848;23.034;2022-11-20T05:42:20;94216.75;;;16.38;100.00
7990;BME280;4040;42.848;23.034;2022-11-20T05:48:22;94226.41;;;16.48;100.00
7990;BME280;4040;42.848;23.034;2022-11-20T05:54:11;94224.59;;;16.72;100.00
7990;BME280;4040;42.848;23.034;2022-11-20T05:59:59;94241.97;;;16.84;100.00
7990;BME280;4040;42.848;23.034;2022-11-20T06:05:49;94246.94;;;16.94;100.00
7990;BME280;4040;42.848;23.034;2022-11-20T06:11:38;94241.19;;;17.01;100.00
7990;BME280;4040;42.848;23.034;2022-11-20T06:17:26;94274.47;;;16.96;100.00
7990;BME280;4040;42.848;23.034;2022-11-20T06:23:16;94285.94;;;16.55;100.00
7990;BME280;4040;42.848;23.034;2022-11-20T06:33:27;94291.22;;;16.01;100.00
7990;BME280;4040;42.848;23.034;2022-11-20T06:39:17;94295.66;;;15.86;100.00
7990;BME280;4040;42.848;23.034;2022-11-20T06:45:25;94291.94;;;15.62;100.00
7990;BME280;4040;42.848;23.034;2022-11-20T06:51:14;94300.03;;;15.53;100.00
7990;BME280;4040;42.848;23.034;2022-11-20T06:57:04;94301.53;;;15.54;100.00
7990;BME280;4040;42.848;23.034;2022-11-20T07:02:52;94303.47;;;15.75;100.00
7990;BME280;4040;42.848;23.034;2022-11-20T07:08:41;94313.41;;;15.05;100.00
7990;BME280;4040;42.848;23.034;2022-11-20T07:14:31;94317.50;;;14.54;100.00
7990;BME280;4040;42.848;23.034;2022-11-20T07:20:19;94319.13;;;14.52;100.00
7990;BME280;4040;42.848;23.034;2022-11-20T07:26:10;94308.28;;;14.52;100.00
7990;BME280;4040;42.848;23.034;2022-11-20T07:36:02;94313.09;;;14.35;100.00
7990;BME280;4040;42.848;23.034;2022-11-20T07:41:51;94325.75;;;14.38;100.00
7990;BME280;4040;42.848;23.034;2022-11-20T07:47:39;94340.06;;;14.39;100.00
7990;BME280;4040;42.848;23.034;2022-11-20T07:53:29;94336.16;;;14.40;100.00
7990;BME280;4040;42.848;23.034;2022-11-20T07:59:18;94332.47;;;14.34;100.00
7990;BME280;4040;42.848;23.034;2022-11-20T08:05:07;94339.09;;;14.33;100.00
7990;BME280;4040;42.848;23.034;2022-11-20T08:10:58;94345.94;;;14.25;100.00
7990;BME280;4040;42.848;23.034;2022-11-20T08:17:08;94350.59;;;14.37;100.00
7990;BME280;4040;42.848;23.034;2022-11-20T08:23:00;94349.72;;;14.15;100.00
7990;BME280;4040;42.848;23.034;2022-11-20T08:28:53;94366.81;;;14.12;100.00
7990;BME280;4040;42.848;23.034;2022-11-20T08:39:04;94388.56;;;13.83;100.00
7990;BME280;4040;42.848;23.034;2022-11-20T08:44:55;94373.97;;;14.06;100.00
7990;BME280;4040;42.848;23.034;2022-11-20T08:50:43;94395.59;;;13.81;100.00
7990;BME280;4040;42.848;23.034;2022-11-20T08:56:32;94373.47;;;13.45;100.00
7990;BME280;4040;42.848;23.034;2022-11-20T09:02:22;94391.25;;;13.71;100.00
7990;BME280;4040;42.848;23.034;2022-11-20T09:08:10;94390.63;;;13.92;100.00
7990;BME280;4040;42.848;23.034;2022-11-20T09:13:59;94389.34;;;14.09;100.00
7990;BME280;4040;42.848;23.034;2022-11-20T09:19:51;94381.53;;;14.11;100.00
7990;BME280;4040;42.848;23.034;2022-11-20T09:25:39;94372.03;;;13.94;100.00
7990;BME280;4040;42.848;23.034;2022-11-20T09:31:28;94341.38;;;14.09;100.00
7990;BME280;4040;42.848;23.034;2022-11-20T09:41:59;94339.13;;;15.01;100.00
7990;BME280;4040;42.848;23.034;2022-11-20T09:48:05;94327.50;;;15.86;100.00
7990;BME280;4040;42.848;23.034;2022-11-20T09:54:09;67518.78;;;-140.34;100.00
7990;BME280;4040;42.848;23.034;2022-11-20T10:00:05;67518.78;;;-140.34;100.00
7990;BME280;4040;42.848;23.034;2022-11-20T10:05:55;67518.78;;;-140.34;100.00
7990;BME280;4040;42.848;23.034;2022-11-20T10:11:50;67518.78;;;-140.34;100.00
7990;BME280;4040;42.848;23.034;2022-11-20T10:18:18;67518.78;;;-140.34;100.00
7990;BME280;4040;42.848;23.034;2022-11-20T10:24:42;67518.78;;;-140.34;100.00
7990;BME280;4040;42.848;23.034;2022-11-20T10:30:35;67518.78;;;-140.34;100.00
7990;BME280;4040;42.848;23.034;2022-11-20T10:36:30;67518.78;;;-140.34;100.00
7990;BME280;4040;42.848;23.034;2022-11-20T10:42:28;67518.78;;;-140.34;100.00
7990;BME280;4040;42.848;23.034;2022-11-20T10:48:21;67518.78;;;-140.34;100.00
7990;BME280;4040;42.848;23.034;2022-11-20T10:54:18;67518.78;;;-140.34;100.00
7990;BME280;4040;42.848;23.034;2022-11-20T11:00:11;67518.78;;;-140.34;100.00
7990;BME280;4040;42.848;23.034;2022-11-20T11:06:10;67518.78;;;-140.34;100.00
7990;BME280;4040;42.848;23.034;2022-11-20T11:12:06;67518.78;;;-140.34;100.00
7990;BME280;4040;42.848;23.034;2022-11-20T11:17:56;67518.78;;;-140.34;100.00
7990;BME280;4040;42.848;23.034;2022-11-20T11:23:45;67518.78;;;-140.34;100.00
7990;BME280;4040;42.848;23.034;2022-11-20T11:29:34;67518.78;;;-140.34;100.00
7990;BME280;4040;42.848;23.034;2022-11-20T11:35:25;67518.78;;;-140.34;100.00
7990;BME280;4040;42.848;23.034;2022-11-20T11:41:17;67518.78;;;-140.34;100.00
7990;BME280;4040;42.848;23.034;2022-11-20T11:47:20;67518.78;;;-140.34;100.00
7990;BME280;4040;42.848;23.034;2022-11-20T11:53:14;67518.78;;;-140.34;100.00
7990;BME280;4040;42.848;23.034;2022-11-20T11:59:09;67518.78;;;-140.34;100.00
7990;BME280;4040;42.848;23.034;2022-11-20T12:05:08;67518.78;;;-140.34;100.00
7990;BME280;4040;42.848;23.034;2022-11-20T12:11:02;67518.78;;;-140.34;100.00
7990;BME280;4040;42.848;23.034;2022-11-20T12:16:53;67518.78;;;-140.34;100.00
7990;BME280;4040;42.848;23.034;2022-11-20T12:22:50;67518.78;;;-140.34;100.00
7990;BME280;4040;42.848;23.034;2022-11-20T12:28:54;67518.78;;;-140.34;100.00
7990;BME280;4040;42.848;23.034;2022-11-20T12:34:50;67518.78;;;-140.34;100.00
7990;BME280;4040;42.848;23.034;2022-11-20T12:45:22;67518.78;;;-140.34;100.00
7990;BME280;4040;42.848;23.034;2022-11-20T12:51:28;67518.78;;;-140.34;100.00
7990;BME280;4040;42.848;23.034;2022-11-20T12:57:23;67518.78;;;-140.34;100.00
7990;BME280;4040;42.848;23.034;2022-11-20T13:03:27;67518.78;;;-140.34;100.00
7990;BME280;4040;42.848;23.034;2022-11-20T13:09:21;67518.78;;;-140.34;100.00
7990;BME280;4040;42.848;23.034;2022-11-20T13:15:18;67518.78;;;-140.34;100.00
7990;BME280;4040;42.848;23.034;2022-11-20T13:21:18;67518.78;;;-140.34;100.00
7990;BME280;4040;42.848;23.034;2022-11-20T13:27:20;67518.78;;;-140.34;100.00
7990;BME280;4040;42.848;23.034;2022-11-20T13:33:23;67518.78;;;-140.34;100.00
7990;BME280;4040;42.848;23.034;2022-11-20T13:39:24;67518.78;;;-140.34;100.00
7990;BME280;4040;42.848;23.034;2022-11-20T13:45:22;67518.78;;;-140.34;100.00
7990;BME280;4040;42.848;23.034;2022-11-20T13:51:24;67518.78;;;-140.34;100.00
7990;BME280;4040;42.848;23.034;2022-11-20T14:00:11;67518.78;;;-140.34;100.00
7990;BME280;4040;42.848;23.034;2022-11-20T14:06:02;67518.78;;;-140.34;100.00
7990;BME280;4040;42.848;23.034;2022-11-20T14:11:51;67518.78;;;-140.34;100.00
7990;BME280;4040;42.848;23.034;2022-11-20T14:17:23;67518.78;;;-140.34;100.00
7990;BME280;4040;42.848;23.034;2022-11-20T14:22:53;67518.78;;;-140.34;100.00
7990;BME280;4040;42.848;23.034;2022-11-20T14:28:25;67518.78;;;-140.34;100.00
7990;BME280;4040;42.848;23.034;2022-11-20T14:33:56;67518.78;;;-140.34;100.00
7990;BME280;4040;42.848;23.034;2022-11-20T14:39:27;67518.78;;;-140.34;100.00
7990;BME280;4040;42.848;23.034;2022-11-20T14:44:59;67518.78;;;-140.34;100.00
7990;BME280;4040;42.848;23.034;2022-11-20T14:50:31;67518.78;;;-140.34;100.00
7990;BME280;4040;42.848;23.034;2022-11-20T14:56:01;67518.78;;;-140.34;100.00
7990;BME280;4040;42.848;23.034;2022-11-20T15:01:32;67518.78;;;-140.34;100.00
7990;BME280;4040;42.848;23.034;2022-11-20T15:07:03;67518.78;;;-140.34;100.00
7990;BME280;4040;42.848;23.034;2022-11-20T15:12:32;67518.78;;;-140.34;100.00
7990;BME280;4040;42.848;23.034;2022-11-20T15:18:03;67518.78;;;-140.34;100.00
7990;BME280;4040;42.848;23.034;2022-11-20T15:23:34;67518.78;;;-140.34;100.00
7990;BME280;4040;42.848;23.034;2022-11-20T15:29:04;67518.78;;;-140.34;100.00
7990;BME280;4040;42.848;23.034;2022-11-20T15:34:53;67518.78;;;-140.34;100.00
7990;BME280;4040;42.848;23.034;2022-11-20T15:44:05;67518.78;;;-140.34;100.00
7990;BME280;4040;42.848;23.034;2022-11-20T15:49:54;67518.78;;;-140.34;100.00
7990;BME280;4040;42.848;23.034;2022-11-20T15:55:42;67518.78;;;-140.34;100.00
7990;BME280;4040;42.848;23.034;2022-11-20T16:01:33;67518.78;;;-140.34;100.00
7990;BME280;4040;42.848;23.034;2022-11-20T16:07:22;67518.78;;;-140.34;100.00
7990;BME280;4040;42.848;23.034;2022-11-20T16:13:15;67518.78;;;-140.34;100.00
7990;BME280;4040;42.848;23.034;2022-11-20T16:19:23;67518.78;;;-140.34;100.00
7990;BME280;4040;42.848;23.034;2022-11-20T16:25:11;67518.78;;;-140.34;100.00
7990;BME280;4040;42.848;23.034;2022-11-20T16:31:08;67518.78;;;-140.34;100.00
7990;BME280;4040;42.848;23.034;2022-11-20T16:36:58;67518.78;;;-140.34;100.00
7990;BME280;4040;42.848;23.034;2022-11-20T16:46:58;67518.78;;;-140.34;100.00
7990;BME280;4040;42.848;23.034;2022-11-20T16:52:49;67518.78;;;-140.34;100.00
7990;BME280;4040;42.848;23.034;2022-11-20T16:58:37;67518.78;;;-140.34;100.00
7990;BME280;4040;42.848;23.034;2022-11-20T17:04:25;67518.78;;;-140.34;100.00
7990;BME280;4040;42.848;23.034;2022-11-20T17:10:15;67518.78;;;-140.34;100.00
7990;BME280;4040;42.848;23.034;2022-11-20T17:16:06;67518.78;;;-140.34;100.00
7990;BME280;4040;42.848;23.034;2022-11-20T17:21:55;67518.78;;;-140.34;100.00
7990;BME280;4040;42.848;23.034;2022-11-20T17:27:45;67518.78;;;-140.34;100.00
7990;BME280;4040;42.848;23.034;2022-11-20T17:33:35;67518.78;;;-140.34;100.00
7990;BME280;4040;42.848;23.034;2022-11-20T17:39:24;67518.78;;;-140.34;100.00
7990;BME280;4040;42.848;23.034;2022-11-20T17:49:16;67518.78;;;-140.34;100.00
7990;BME280;4040;42.848;23.034;2022-11-20T17:55:06;67518.78;;;-140.34;100.00
7990;BME280;4040;42.848;23.034;2022-11-20T18:00:55;67518.78;;;-140.34;100.00
7990;BME280;4040;42.848;23.034;2022-11-20T18:06:52;67518.78;;;-140.34;100.00
7990;BME280;4040;42.848;23.034;2022-11-20T18:12:41;67518.78;;;-140.34;100.00
7990;BME280;4040;42.848;23.034;2022-11-20T18:18:30;67518.78;;;-140.34;100.00
7990;BME280;4040;42.848;23.034;2022-11-20T18:24:20;67518.78;;;-140.34;100.00
7990;BME280;4040;42.848;23.034;2022-11-20T18:30:10;67518.78;;;-140.34;100.00
7990;BME280;4040;42.848;23.034;2022-11-20T18:36:08;67518.78;;;-140.34;100.00
7990;BME280;4040;42.848;23.034;2022-11-20T18:41:58;67518.78;;;-140.34;100.00
7990;BME280;4040;42.848;23.034;2022-11-20T18:52:27;67518.78;;;-140.34;100.00
7990;BME280;4040;42.848;23.034;2022-11-20T18:58:18;67518.78;;;-140.34;100.00
7990;BME280;4040;42.848;23.034;2022-11-20T19:04:07;67518.78;;;-140.34;100.00
7990;BME280;4040;42.848;23.034;2022-11-20T19:09:56;67518.78;;;-140.34;100.00
7990;BME280;4040;42.848;23.034;2022-11-20T19:15:46;67518.78;;;-140.34;100.00
7990;BME280;4040;42.848;23.034;2022-11-20T19:21:35;67518.78;;;-140.34;100.00
7990;BME280;4040;42.848;23.034;2022-11-20T19:27:24;67518.78;;;-140.34;100.00
7990;BME280;4040;42.848;23.034;2022-11-20T19:33:15;67518.78;;;-140.34;100.00
7990;BME280;4040;42.848;23.034;2022-11-20T19:39:05;67518.78;;;-140.34;100.00
7990;BME280;4040;42.848;23.034;2022-11-20T19:44:55;67518.78;;;-140.34;100.00
7990;BME280;4040;42.848;23.034;2022-11-20T19:55:08;67518.78;;;-140.34;100.00
7990;BME280;4040;42.848;23.034;2022-11-20T20:00:57;67518.78;;;-140.34;100.00
7990;BME280;4040;42.848;23.034;2022-11-20T20:06:53;67518.78;;;-140.34;100.00
7990;BME280;4040;42.848;23.034;2022-11-20T20:12:43;67518.78;;;-140.34;100.00
7990;BME280;4040;42.848;23.034;2022-11-20T20:18:32;67518.78;;;-140.34;100.00
7990;BME280;4040;42.848;23.034;2022-11-20T20:24:21;67518.78;;;-140.34;100.00
7990;BME280;4040;42.848;23.034;2022-11-20T20:30:12;67518.78;;;-140.34;100.00
7990;BME280;4040;42.848;23.034;2022-11-20T20:36:00;67518.78;;;-140.34;100.00
7990;BME280;4040;42.848;23.034;2022-11-20T20:41:49;67518.78;;;-140.34;100.00
7990;BME280;4040;42.848;23.034;2022-11-20T20:47:40;67518.78;;;-140.34;100.00
7990;BME280;4040;42.848;23.034;2022-11-20T20:57:50;67518.78;;;-140.34;100.00
7990;BME280;4040;42.848;23.034;2022-11-20T21:03:43;67518.78;;;-140.34;100.00
7990;BME280;4040;42.848;23.034;2022-11-20T21:09:32;67518.78;;;-140.34;100.00
7990;BME280;4040;42.848;23.034;2022-11-20T21:15:20;67518.78;;;-140.34;100.00
7990;BME280;4040;42.848;23.034;2022-11-20T21:21:12;67518.78;;;-140.34;100.00
7990;BME280;4040;42.848;23.034;2022-11-20T21:27:19;67518.78;;;-140.34;100.00
7990;BME280;4040;42.848;23.034;2022-11-20T21:33:07;67518.78;;;-140.34;100.00
7990;BME280;4040;42.848;23.034;2022-11-20T21:38:57;67518.78;;;-140.34;100.00
7990;BME280;4040;42.848;23.034;2022-11-20T21:44:46;67518.78;;;-140.34;100.00
7990;BME280;4040;42.848;23.034;2022-11-20T21:50:35;67518.78;;;-140.34;100.00
7990;BME280;4040;42.848;23.034;2022-11-20T22:00:47;67518.78;;;-140.34;100.00
7990;BME280;4040;42.848;23.034;2022-11-20T22:06:36;67518.78;;;-140.34;100.00
7990;BME280;4040;42.848;23.034;2022-11-20T22:12:24;67518.78;;;-140.34;100.00
7990;BME280;4040;42.848;23.034;2022-11-20T22:18:14;67518.78;;;-140.34;100.00
7990;BME280;4040;42.848;23.034;2022-11-20T22:24:04;67518.78;;;-140.34;100.00
7990;BME280;4040;42.848;23.034;2022-11-20T22:29:53;67518.78;;;-140.34;100.00
7990;BME280;4040;42.848;23.034;2022-11-20T22:35:43;67518.78;;;-140.34;100.00
7990;BME280;4040;42.848;23.034;2022-11-20T22:41:32;67518.78;;;-140.34;100.00
7990;BME280;4040;42.848;23.034;2022-11-20T22:47:20;67518.78;;;-140.34;100.00
7990;BME280;4040;42.848;23.034;2022-11-20T22:53:10;67518.78;;;-140.34;100.00
7990;BME280;4040;42.848;23.034;2022-11-20T23:08:32;93774.94;;;9.83;100.00
7990;BME280;4040;42.848;23.034;2022-11-20T23:14:21;93752.59;;;9.86;100.00
7990;BME280;4040;42.848;23.034;2022-11-20T23:20:10;93747.72;;;9.97;100.00
7990;BME280;4040;42.848;23.034;2022-11-20T23:26:01;93745.19;;;10.05;100.00
7990;BME280;4040;42.848;23.034;2022-11-20T23:31:50;93731.91;;;10.14;100.00
7990;BME280;4040;42.848;23.034;2022-11-20T23:37:38;93701.97;;;10.12;100.00
7990;BME280;4040;42.848;23.034;2022-11-20T23:43:28;93664.97;;;10.16;100.00
7990;BME280;4040;42.848;23.034;2022-11-20T23:49:17;93649.91;;;10.07;100.00
7990;BME280;4040;42.848;23.034;2022-11-20T23:55:06;93688.38;;;10.03;100.00
